Terminal Aerodrome Forecast
Issued by NWS Detroit/Pontiac, MI

Home | Current Version | Previous Version | Text Only | Print | Product List | Glossary On
Versions: 1 2 3 4 5 6 7 8 9 10 11 12 13 14 15 16 17 18 19 20 21 22 23 24 25 26
097
FTUS43 KDTX 080244 AAA
TAFDTW
TAF AMD
KDTW 080244Z 0803/0906 19008KT P6SM SCT035 OVC060
     FM080500 20007KT P6SM SCT028 BKN035
     FM081200 23007KT P6SM SCT028 OVC100
     FM081800 27007KT P6SM BKN045
     FM090000 26006KT P6SM -SHSN OVC035=

USA.gov is the U.S. government's official web portal to all federal, state and local government web resources and services.